createdAt,value
2023-05-25T00:00:11.587Z,99.99
2023-05-25T00:01:11.550Z,99.99
2023-05-25T00:02:11.534Z,99.99
2023-05-25T00:03:11.582Z,99.99
2023-05-25T00:04:11.739Z,99.99
2023-05-25T00:05:12.538Z,99.99
2023-05-25T00:06:12.506Z,99.99
2023-05-25T00:07:11.501Z,99.96
2023-05-25T00:08:11.495Z,99.99
2023-05-25T00:09:11.517Z,99.99
2023-05-25T00:10:11.501Z,99.99
2023-05-25T00:11:11.468Z,99.99
2023-05-25T00:12:11.461Z,99.99
2023-05-25T00:13:11.496Z,99.99
2023-05-25T00:14:11.496Z,99.99
2023-05-25T00:15:11.438Z,99.99
2023-05-25T00:16:11.434Z,99.99
2023-05-25T00:17:11.457Z,99.99
2023-05-25T00:18:11.420Z,99.99
2023-05-25T00:19:11.438Z,99.99
2023-05-25T00:20:11.440Z,99.99
2023-05-25T00:21:11.391Z,99.99
2023-05-25T00:22:11.385Z,99.99
2023-05-25T00:23:11.398Z,99.99
2023-05-25T00:24:11.405Z,99.99
2023-05-25T00:25:11.363Z,99.99
2023-05-25T00:26:11.365Z,99.99
2023-05-25T00:27:11.348Z,99.99
2023-05-25T00:28:11.381Z,99.99
2023-05-25T00:29:11.351Z,99.99
2023-05-25T00:30:11.326Z,99.99
2023-05-25T00:31:11.337Z,99.99
2023-05-25T00:32:11.310Z,99.99
2023-05-25T00:33:11.326Z,99.99
2023-05-25T00:34:11.300Z,99.99
2023-05-25T00:35:11.291Z,99.99
2023-05-25T00:36:11.278Z,99.99
2023-05-25T00:37:11.295Z,99.99
2023-05-25T00:38:11.289Z,99.99
2023-05-25T00:39:11.248Z,99.99
2023-05-25T00:40:11.242Z,99.99
2023-05-25T00:41:11.236Z,99.99
2023-05-25T00:42:11.281Z,99.99
2023-05-25T00:43:11.218Z,99.99
2023-05-25T00:44:11.211Z,99.99
2023-05-25T00:45:11.214Z,99.99
2023-05-25T00:46:11.265Z,99.99
2023-05-25T00:47:11.217Z,99.99
2023-05-25T00:48:11.245Z,99.99
2023-05-25T00:49:11.172Z,99.99
2023-05-25T00:50:11.162Z,99.99
2023-05-25T00:51:11.155Z,99.99
2023-05-25T00:52:11.176Z,99.99
2023-05-25T00:53:11.136Z,99.99
2023-05-25T00:54:11.134Z,99.99
2023-05-25T00:55:11.126Z,99.99
2023-05-25T00:56:11.143Z,99.99
2023-05-25T00:57:11.139Z,99.99
2023-05-25T00:58:11.114Z,99.99
2023-05-25T00:59:11.102Z,99.99
2023-05-25T01:00:11.086Z,99.99
2023-05-25T01:01:11.111Z,99.99
2023-05-25T01:02:11.199Z,99.99
2023-05-25T01:03:11.296Z,99.99
2023-05-25T01:04:12.115Z,99.99
2023-05-25T01:05:11.059Z,99.99
2023-05-25T01:06:11.070Z,99.99
2023-05-25T01:07:11.035Z,99.99
2023-05-25T01:08:11.026Z,99.99
2023-05-25T01:09:11.018Z,99.99
2023-05-25T01:10:11.042Z,99.99
2023-05-25T01:11:11.027Z,99.99
2023-05-25T01:12:10.997Z,99.99
2023-05-25T01:13:11.000Z,99.99
2023-05-25T01:14:10.998Z,99.99
2023-05-25T01:15:10.992Z,99.99
2023-05-25T01:16:10.969Z,99.99
2023-05-25T01:17:10.963Z,99.99
2023-05-25T01:18:10.937Z,99.99
2023-05-25T01:19:10.957Z,99.99
2023-05-25T01:20:11.963Z,99.99
2023-05-25T01:21:11.918Z,99.99
2023-05-25T01:22:10.915Z,99.99
2023-05-25T01:23:10.897Z,99.99
2023-05-25T01:24:10.910Z,99.99
2023-05-25T01:25:10.904Z,99.99
2023-05-25T01:26:10.873Z,99.99
2023-05-25T01:27:10.860Z,99.99
2023-05-25T01:28:10.853Z,99.99
2023-05-25T01:29:10.869Z,99.99
2023-05-25T01:30:10.852Z,99.99
2023-05-25T01:31:10.823Z,99.99
2023-05-25T01:32:10.860Z,99.99
2023-05-25T01:33:10.935Z,99.99
2023-05-25T01:34:10.836Z,99.99
2023-05-25T01:35:10.802Z,99.99
2023-05-25T01:36:10.791Z,99.99
2023-05-25T01:37:10.795Z,99.99
2023-05-25T01:38:10.805Z,99.99
2023-05-25T01:39:10.798Z,99.99
2023-05-25T01:40:10.751Z,99.99
2023-05-25T01:41:11.760Z,99.99
2023-05-25T01:42:10.745Z,99.99
2023-05-25T01:43:10.804Z,99.99
2023-05-25T01:44:10.731Z,99.99
2023-05-25T01:45:10.745Z,99.99
2023-05-25T01:46:10.764Z,99.99
2023-05-25T01:47:10.713Z,99.99
2023-05-25T01:48:10.773Z,99.99
2023-05-25T01:49:10.700Z,99.99
2023-05-25T01:50:10.698Z,99.99
2023-05-25T01:51:10.684Z,99.99
2023-05-25T01:52:10.759Z,99.99
2023-05-25T01:53:10.694Z,99.99
2023-05-25T01:54:10.656Z,99.99
2023-05-25T01:55:10.654Z,99.99
2023-05-25T01:56:10.653Z,99.99
2023-05-25T01:57:10.698Z,99.99
2023-05-25T01:58:10.656Z,99.99
2023-05-25T01:59:10.625Z,99.99
2023-05-25T02:00:10.617Z,99.99
2023-05-25T02:01:10.641Z,99.99
2023-05-25T02:02:11.626Z,99.99
2023-05-25T02:03:10.687Z,99.99
2023-05-25T02:04:10.699Z,99.99
2023-05-25T02:05:10.606Z,99.99
2023-05-25T02:06:10.576Z,99.99
2023-05-25T02:07:10.592Z,99.99
2023-05-25T02:08:10.552Z,99.99
2023-05-25T02:09:10.623Z,99.99
2023-05-25T02:10:10.540Z,99.99
2023-05-25T02:11:10.566Z,99.99
2023-05-25T02:12:10.552Z,99.99
2023-05-25T02:13:10.532Z,99.99
2023-05-25T02:14:10.513Z,99.99
2023-05-25T02:15:10.515Z,99.99
2023-05-25T02:16:10.547Z,99.99
2023-05-25T02:17:10.491Z,99.99
2023-05-25T02:18:10.480Z,99.99
2023-05-25T02:19:10.479Z,99.99
2023-05-25T02:20:10.482Z,99.99
2023-05-25T02:21:10.482Z,99.99
2023-05-25T02:22:10.459Z,99.99
2023-05-25T02:23:10.445Z,99.99
2023-05-25T02:24:10.446Z,99.99
2023-05-25T02:25:10.433Z,99.99
2023-05-25T02:26:10.451Z,99.99
2023-05-25T02:27:10.419Z,99.99
2023-05-25T02:28:10.404Z,99.99
2023-05-25T02:29:10.395Z,99.99
2023-05-25T02:30:10.423Z,99.99
2023-05-25T02:31:10.492Z,99.99
2023-05-25T02:32:10.377Z,99.99
2023-05-25T02:33:10.366Z,99.99
2023-05-25T02:34:10.351Z,99.99
2023-05-25T02:35:10.382Z,99.99
2023-05-25T02:36:10.341Z,99.99
2023-05-25T02:37:10.332Z,99.99
2023-05-25T02:38:10.331Z,99.99
2023-05-25T02:39:10.322Z,99.99
2023-05-25T02:40:10.337Z,99.99
2023-05-25T02:41:10.302Z,99.99
2023-05-25T02:42:10.279Z,99.99
2023-05-25T02:43:11.288Z,99.99
2023-05-25T02:44:10.309Z,99.99
2023-05-25T02:45:10.287Z,99.99
2023-05-25T02:46:10.298Z,99.99
2023-05-25T02:47:10.304Z,99.99
2023-05-25T02:48:10.242Z,99.99
2023-05-25T02:49:10.287Z,99.99
2023-05-25T02:50:10.236Z,99.99
2023-05-25T02:51:10.221Z,99.99
2023-05-25T02:52:10.223Z,99.99
2023-05-25T02:53:10.207Z,99.99
2023-05-25T02:54:10.229Z,99.99
2023-05-25T02:55:10.291Z,99.99
2023-05-25T02:56:10.190Z,99.99
2023-05-25T02:57:10.187Z,99.99
2023-05-25T02:58:10.193Z,99.99
2023-05-25T02:59:10.183Z,99.99
2023-05-25T03:00:10.153Z,99.99
2023-05-25T03:01:10.208Z,99.99
2023-05-25T03:02:10.145Z,99.99
2023-05-25T03:03:10.337Z,99.99
2023-05-25T03:04:10.164Z,99.99
2023-05-25T03:05:10.123Z,99.99
2023-05-25T03:06:10.116Z,99.99
2023-05-25T03:07:10.097Z,99.99
2023-05-25T03:08:10.111Z,99.99
2023-05-25T03:09:10.078Z,99.99
2023-05-25T03:10:10.074Z,99.99
2023-05-25T03:11:10.066Z,99.99
2023-05-25T03:12:10.063Z,99.99
2023-05-25T03:13:10.078Z,99.99
2023-05-25T03:14:10.041Z,99.99
2023-05-25T03:15:10.048Z,99.99
2023-05-25T03:16:10.057Z,99.99
2023-05-25T03:17:10.023Z,99.99
2023-05-25T03:18:10.042Z,99.99
2023-05-25T03:19:10.004Z,99.99
2023-05-25T03:20:10.051Z,99.99
2023-05-25T03:21:09.991Z,99.99
2023-05-25T03:22:10.010Z,99.99
2023-05-25T03:23:09.999Z,99.99
2023-05-25T03:24:09.968Z,99.99
2023-05-25T03:25:09.961Z,99.99
2023-05-25T03:26:09.951Z,99.99
2023-05-25T03:27:09.975Z,99.99
2023-05-25T03:28:09.941Z,99.99
2023-05-25T03:29:09.924Z,99.99
2023-05-25T03:30:09.919Z,99.99
2023-05-25T03:31:09.907Z,99.99
2023-05-25T03:32:09.990Z,99.99
2023-05-25T03:33:09.956Z,99.99
2023-05-25T03:34:09.883Z,99.99
2023-05-25T03:35:09.877Z,99.99
2023-05-25T03:36:09.867Z,99.99
2023-05-25T03:37:09.894Z,99.99
2023-05-25T03:38:09.869Z,99.99
2023-05-25T03:39:09.849Z,99.99
2023-05-25T03:40:09.830Z,99.99
2023-05-25T03:41:09.852Z,99.99
2023-05-25T03:42:09.848Z,99.99
2023-05-25T03:43:09.815Z,99.99
2023-05-25T03:44:09.804Z,99.99
2023-05-25T03:45:09.812Z,99.99
2023-05-25T03:46:09.834Z,99.99
2023-05-25T03:47:09.790Z,99.99
2023-05-25T03:48:09.777Z,99.99
2023-05-25T03:49:09.769Z,99.99
2023-05-25T03:50:09.755Z,99.99
2023-05-25T03:51:09.777Z,99.99
2023-05-25T03:52:09.744Z,99.99
2023-05-25T03:53:09.741Z,99.99
2023-05-25T03:54:09.732Z,99.99
2023-05-25T03:55:09.738Z,99.99
2023-05-25T03:56:09.740Z,99.99
2023-05-25T03:57:09.701Z,99.99
2023-05-25T03:58:09.691Z,99.99
2023-05-25T03:59:09.696Z,99.99
2023-05-25T04:00:09.709Z,99.99
2023-05-25T04:01:09.942Z,99.99
2023-05-25T04:02:09.735Z,99.99
2023-05-25T04:03:09.737Z,99.99
2023-05-25T04:04:09.731Z,99.99
2023-05-25T04:05:09.663Z,99.99
2023-05-25T04:06:09.637Z,99.99
2023-05-25T04:07:09.614Z,99.99
2023-05-25T04:08:09.609Z,99.99
2023-05-25T04:09:09.597Z,99.99
2023-05-25T04:10:09.636Z,99.99
2023-05-25T04:11:09.585Z,99.99
2023-05-25T04:12:09.587Z,99.99
2023-05-25T04:13:09.657Z,99.99
2023-05-25T04:14:09.587Z,99.99
2023-05-25T04:15:09.699Z,99.99
2023-05-25T04:16:09.804Z,99.99
2023-05-25T04:17:10.544Z,99.99
2023-05-25T04:18:09.576Z,99.99
2023-05-25T04:19:09.554Z,99.99
2023-05-25T04:20:09.550Z,99.99
2023-05-25T04:21:09.512Z,99.99
2023-05-25T04:22:09.501Z,99.99
2023-05-25T04:23:09.521Z,99.99
2023-05-25T04:24:09.512Z,99.99
2023-05-25T04:25:09.478Z,99.99
2023-05-25T04:26:09.485Z,99.99
2023-05-25T04:27:09.483Z,99.99
2023-05-25T04:28:09.481Z,99.99
2023-05-25T04:29:09.447Z,99.99
2023-05-25T04:30:09.439Z,99.99
2023-05-25T04:31:09.556Z,99.99
2023-05-25T04:32:09.503Z,99.84
2023-05-25T04:33:09.500Z,99.99
2023-05-25T04:34:09.433Z,99.99
2023-05-25T04:35:09.400Z,99.90
2023-05-25T04:36:09.393Z,99.74
2023-05-25T04:37:09.426Z,99.48
2023-05-25T04:38:09.412Z,99.64
2023-05-25T04:39:09.364Z,99.85
2023-05-25T04:40:09.358Z,99.70
2023-05-25T04:41:09.358Z,99.13
2023-05-25T04:42:09.384Z,99.64
2023-05-25T04:43:09.359Z,99.23
2023-05-25T04:44:10.432Z,99.39
2023-05-25T04:45:10.320Z,99.18
2023-05-25T04:46:09.320Z,98.21
2023-05-25T04:47:09.335Z,97.75
2023-05-25T04:48:09.314Z,96.62
2023-05-25T04:49:09.300Z,96.37
2023-05-25T04:50:09.281Z,96.22
2023-05-25T04:51:09.279Z,95.56
2023-05-25T04:52:09.301Z,94.59
2023-05-25T04:53:09.256Z,93.63
2023-05-25T04:54:09.248Z,92.97
2023-05-25T04:55:09.240Z,91.18
2023-05-25T04:56:09.258Z,90.22
2023-05-25T04:57:09.247Z,89.97
2023-05-25T04:58:09.218Z,88.59
2023-05-25T04:59:09.208Z,88.04
2023-05-25T05:00:09.205Z,86.63
2023-05-25T05:01:09.260Z,85.96
2023-05-25T05:02:09.191Z,85.44
2023-05-25T05:03:09.256Z,85.99
2023-05-25T05:04:09.200Z,87.16
2023-05-25T05:05:09.177Z,87.88
2023-05-25T05:06:09.181Z,88.74
2023-05-25T05:07:09.168Z,89.39
2023-05-25T05:08:09.149Z,89.60
2023-05-25T05:09:09.134Z,89.95
2023-05-25T05:10:09.123Z,90.36
2023-05-25T05:11:09.141Z,91.33
2023-05-25T05:12:11.293Z,91.42
2023-05-25T05:13:10.105Z,92.80
2023-05-25T05:14:09.099Z,92.91
2023-05-25T05:15:09.109Z,93.52
2023-05-25T05:16:09.118Z,93.12
2023-05-25T05:17:09.073Z,93.16
2023-05-25T05:18:09.103Z,94.39
2023-05-25T05:19:09.056Z,94.59
2023-05-25T05:20:09.177Z,94.08
2023-05-25T05:21:09.039Z,94.18
2023-05-25T05:22:09.030Z,93.83
2023-05-25T05:23:09.024Z,93.32
2023-05-25T05:24:09.024Z,92.97
2023-05-25T05:25:09.033Z,93.12
2023-05-25T05:26:09.000Z,93.83
2023-05-25T05:27:08.992Z,94.04
2023-05-25T05:28:08.983Z,94.04
2023-05-25T05:29:08.973Z,94.14
2023-05-25T05:30:08.995Z,93.63
2023-05-25T05:31:08.996Z,93.73
2023-05-25T05:32:08.950Z,93.83
2023-05-25T05:33:09.107Z,94.65
2023-05-25T05:34:09.035Z,94.29
2023-05-25T05:35:08.955Z,96.14
2023-05-25T05:36:08.920Z,95.93
2023-05-25T05:37:08.920Z,96.09
2023-05-25T05:38:08.904Z,95.98
2023-05-25T05:39:08.924Z,95.47
2023-05-25T05:40:08.890Z,96.40
2023-05-25T05:41:08.883Z,95.17
2023-05-25T05:42:08.874Z,95.47
2023-05-25T05:43:08.890Z,95.02
2023-05-25T05:44:08.883Z,95.37
2023-05-25T05:45:08.853Z,95.57
2023-05-25T05:46:08.881Z,94.96
2023-05-25T05:47:08.838Z,95.68
2023-05-25T05:48:08.901Z,95.98
2023-05-25T05:49:08.910Z,97.02
2023-05-25T05:50:08.820Z,98.04
2023-05-25T05:51:08.808Z,97.38
2023-05-25T05:52:08.792Z,96.35
2023-05-25T05:53:08.810Z,96.31
2023-05-25T05:54:08.781Z,96.10
2023-05-25T05:55:08.772Z,96.31
2023-05-25T05:56:08.764Z,96.10
2023-05-25T05:57:08.754Z,95.54
2023-05-25T05:58:08.794Z,95.03
2023-05-25T05:59:08.747Z,95.24
2023-05-25T06:00:08.735Z,94.32
2023-05-25T06:01:08.723Z,94.42
2023-05-25T06:02:08.758Z,95.34
2023-05-25T06:03:08.750Z,94.83
2023-05-25T06:04:08.703Z,95.24
2023-05-25T06:05:08.830Z,95.86
2023-05-25T06:06:08.770Z,95.95
2023-05-25T06:07:08.696Z,95.50
2023-05-25T06:08:08.674Z,95.81
2023-05-25T06:09:08.657Z,95.81
2023-05-25T06:10:08.655Z,96.17
2023-05-25T06:11:08.644Z,96.32
2023-05-25T06:12:08.670Z,96.01
2023-05-25T06:13:08.630Z,95.81
2023-05-25T06:14:08.630Z,96.53
2023-05-25T06:15:08.629Z,96.69
2023-05-25T06:16:08.680Z,97.81
2023-05-25T06:17:08.660Z,96.38
2023-05-25T06:18:08.626Z,95.92
2023-05-25T06:19:08.591Z,94.71
2023-05-25T06:20:08.584Z,94.92
2023-05-25T06:21:09.479Z,94.71
2023-05-25T06:22:08.591Z,94.36
2023-05-25T06:23:08.545Z,92.88
2023-05-25T06:24:08.539Z,92.54
2023-05-25T06:25:08.533Z,92.49
2023-05-25T06:26:08.556Z,91.27
2023-05-25T06:27:08.546Z,91.98
2023-05-25T06:28:08.520Z,92.39
2023-05-25T06:29:08.503Z,91.16
2023-05-25T06:30:08.495Z,90.71
2023-05-25T06:31:08.510Z,90.77
2023-05-25T06:32:08.593Z,90.36
2023-05-25T06:33:08.574Z,89.61
2023-05-25T06:34:08.455Z,88.20
2023-05-25T06:35:08.456Z,86.94
2023-05-25T06:36:09.125Z,86.49
2023-05-25T06:37:08.492Z,86.29
2023-05-25T06:38:08.432Z,85.19
2023-05-25T06:39:08.425Z,83.89
2023-05-25T06:40:08.438Z,81.13
2023-05-25T06:41:08.436Z,78.49
2023-05-25T06:42:08.418Z,76.18
2023-05-25T06:43:08.385Z,72.47
2023-05-25T06:44:09.380Z,69.45
2023-05-25T06:45:08.404Z,66.17
2023-05-25T06:46:08.410Z,64.48
2023-05-25T06:47:08.378Z,62.71
2023-05-25T06:48:08.385Z,62.18
2023-05-25T06:49:08.347Z,61.12
2023-05-25T06:50:08.355Z,59.83
2023-05-25T06:51:08.336Z,58.01
2023-05-25T06:52:08.318Z,59.36
2023-05-25T06:53:08.323Z,58.51
2023-05-25T06:54:08.314Z,58.34
2023-05-25T06:55:08.337Z,60.12
2023-05-25T06:56:08.285Z,62.71
2023-05-25T06:57:08.283Z,64.61
2023-05-25T06:58:08.275Z,63.20
2023-05-25T06:59:08.309Z,63.73
2023-05-25T07:00:08.305Z,64.47
2023-05-25T07:01:08.301Z,68.02
2023-05-25T07:02:08.248Z,65.77
2023-05-25T07:03:08.319Z,65.54
2023-05-25T07:04:08.275Z,65.53
2023-05-25T07:05:08.271Z,64.26
2023-05-25T07:06:08.236Z,66.67
2023-05-25T07:07:08.223Z,66.40
2023-05-25T07:08:08.213Z,68.85
2023-05-25T07:09:08.221Z,66.30
2023-05-25T07:10:08.202Z,68.28
2023-05-25T07:11:08.184Z,68.59
2023-05-25T07:12:08.176Z,67.68
2023-05-25T07:13:08.224Z,66.37
2023-05-25T07:14:08.186Z,66.14
2023-05-25T07:15:08.159Z,66.74
2023-05-25T07:16:08.261Z,65.03
2023-05-25T07:17:08.151Z,68.75
2023-05-25T07:18:08.200Z,65.01
2023-05-25T07:19:08.125Z,62.84
2023-05-25T07:20:08.172Z,62.77
2023-05-25T07:21:08.111Z,63.70
2023-05-25T07:22:08.105Z,64.31
2023-05-25T07:23:08.120Z,63.93
2023-05-25T07:24:08.093Z,62.93
2023-05-25T07:25:08.109Z,62.67
2023-05-25T07:26:08.074Z,61.31
2023-05-25T07:27:08.094Z,61.68
2023-05-25T07:28:08.100Z,60.91
2023-05-25T07:29:08.056Z,59.22
2023-05-25T07:30:08.068Z,58.52
2023-05-25T07:31:08.058Z,58.52
2023-05-25T07:32:08.070Z,58.92
2023-05-25T07:33:08.153Z,61.08
2023-05-25T07:34:08.034Z,61.10
2023-05-25T07:35:08.017Z,62.40
2023-05-25T07:36:08.005Z,62.57
2023-05-25T07:37:08.022Z,62.34
2023-05-25T07:38:07.999Z,61.04
2023-05-25T07:39:07.994Z,62.67
2023-05-25T07:40:07.997Z,63.46
2023-05-25T07:41:07.969Z,65.10
2023-05-25T07:42:07.984Z,64.37
2023-05-25T07:43:08.579Z,64.14
2023-05-25T07:44:08.947Z,63.17
2023-05-25T07:45:07.962Z,64.10
2023-05-25T07:46:07.959Z,64.16
2023-05-25T07:47:08.113Z,64.63
2023-05-25T07:48:39.830Z,64.73
2023-05-25T07:49:07.939Z,63.56
2023-05-25T07:50:07.924Z,62.87
2023-05-25T07:51:07.944Z,63.57
2023-05-25T07:52:07.899Z,62.80
2023-05-25T07:53:07.886Z,62.44
2023-05-25T07:54:07.886Z,61.34
2023-05-25T07:55:07.940Z,62.24
2023-05-25T07:56:10.384Z,62.57
2023-05-25T07:57:08.881Z,64.21
2023-05-25T07:58:07.852Z,62.53
2023-05-25T07:59:07.869Z,60.74
2023-05-25T08:00:07.892Z,59.28
2023-05-25T08:01:07.895Z,58.17
2023-05-25T08:02:07.878Z,59.21
2023-05-25T08:03:07.992Z,59.49
2023-05-25T08:04:07.935Z,59.52
2023-05-25T08:05:08.046Z,58.92
2023-05-25T08:06:07.811Z,58.85
2023-05-25T08:07:07.797Z,62.70
2023-05-25T08:08:07.800Z,62.36
2023-05-25T08:09:07.777Z,62.56
2023-05-25T08:10:07.801Z,62.90
2023-05-25T08:11:07.761Z,62.20
2023-05-25T08:12:30.572Z,63.73
2023-05-25T08:13:09.758Z,62.46
2023-05-25T08:14:07.765Z,63.39
2023-05-25T08:15:07.765Z,67.11
2023-05-25T08:16:07.729Z,65.36
2023-05-25T08:17:07.750Z,65.09
2023-05-25T08:18:07.766Z,65.33
2023-05-25T08:19:07.733Z,66.24
2023-05-25T08:20:07.757Z,63.70
2023-05-25T08:21:07.694Z,64.50
2023-05-25T08:22:07.687Z,67.18
2023-05-25T08:23:07.673Z,65.19
2023-05-25T08:24:07.723Z,65.09
2023-05-25T08:25:07.667Z,65.94
2023-05-25T08:26:20.311Z,64.23
2023-05-25T08:27:09.667Z,67.55
2023-05-25T08:28:07.649Z,63.59
2023-05-25T08:29:07.680Z,63.43
2023-05-25T08:30:07.622Z,65.11
2023-05-25T08:31:07.661Z,62.20
2023-05-25T08:32:07.622Z,62.67
2023-05-25T08:33:07.690Z,65.04
2023-05-25T08:34:07.712Z,62.40
2023-05-25T08:35:07.588Z,62.34
2023-05-25T08:36:07.592Z,62.61
2023-05-25T08:37:07.575Z,61.90
2023-05-25T08:38:07.608Z,64.67
2023-05-25T08:39:07.601Z,64.83
2023-05-25T08:40:07.558Z,63.90
2023-05-25T08:41:07.552Z,62.86
2023-05-25T08:42:07.541Z,63.93
2023-05-25T08:43:07.561Z,63.00
2023-05-25T08:44:07.532Z,62.93
2023-05-25T08:45:07.526Z,63.70
2023-05-25T08:46:07.528Z,64.66
2023-05-25T08:47:07.515Z,64.09
2023-05-25T08:48:07.650Z,64.33
2023-05-25T08:49:07.575Z,63.22
2023-05-25T08:50:07.492Z,63.22
2023-05-25T08:51:10.141Z,64.30
2023-05-25T08:52:07.505Z,62.53
2023-05-25T08:53:07.495Z,65.50
2023-05-25T08:54:07.464Z,66.13
2023-05-25T08:55:07.476Z,67.64
2023-05-25T08:56:07.466Z,64.59
2023-05-25T08:57:07.475Z,64.19
2023-05-25T08:58:07.457Z,65.53
2023-05-25T08:59:07.439Z,66.53
2023-05-25T09:00:07.424Z,65.13
2023-05-25T09:01:07.434Z,64.20
2023-05-25T09:02:07.533Z,63.06
2023-05-25T09:03:07.464Z,64.13
2023-05-25T09:04:07.468Z,63.85
2023-05-25T09:05:07.382Z,63.82
2023-05-25T09:06:07.373Z,62.72
2023-05-25T09:07:10.908Z,63.05
2023-05-25T09:08:08.402Z,62.75
2023-05-25T09:09:07.362Z,63.28
2023-05-25T09:10:07.358Z,64.09
2023-05-25T09:11:07.691Z,66.94
2023-05-25T09:12:07.380Z,63.08
2023-05-25T09:13:20.255Z,64.99
2023-05-25T09:14:09.312Z,65.06
2023-05-25T09:15:07.299Z,66.39
2023-05-25T09:16:07.345Z,65.56
2023-05-25T09:17:07.306Z,65.96
2023-05-25T09:18:07.357Z,66.74
2023-05-25T09:19:07.280Z,66.33
2023-05-25T09:20:07.299Z,64.36
2023-05-25T09:21:07.288Z,61.94
2023-05-25T09:22:15.627Z,61.18
2023-05-25T09:23:09.251Z,62.32
2023-05-25T09:24:07.249Z,64.23
2023-05-25T09:25:07.235Z,63.35
2023-05-25T09:26:07.258Z,64.12
2023-05-25T09:27:07.224Z,66.10
2023-05-25T09:28:24.669Z,66.91
2023-05-25T09:29:09.217Z,67.27
2023-05-25T09:30:07.232Z,66.80
2023-05-25T09:31:07.234Z,67.17
2023-05-25T09:32:07.233Z,66.90
2023-05-25T09:33:07.230Z,66.60
2023-05-25T09:34:07.175Z,66.73
2023-05-25T09:35:07.197Z,68.74
2023-05-25T09:36:07.186Z,67.17
2023-05-25T09:37:07.352Z,66.87
2023-05-25T09:38:07.280Z,65.99
2023-05-25T09:39:07.348Z,68.14
2023-05-25T09:40:07.157Z,70.09
2023-05-25T09:41:07.159Z,67.67
2023-05-25T09:42:07.117Z,69.25
2023-05-25T09:43:07.109Z,67.71
2023-05-25T09:44:11.512Z,65.22
2023-05-25T09:45:08.117Z,66.63
2023-05-25T09:46:07.156Z,66.22
2023-05-25T09:47:07.083Z,64.28
2023-05-25T09:48:07.073Z,69.49
2023-05-25T09:49:08.074Z,66.70
2023-05-25T09:50:07.082Z,68.38
2023-05-25T09:51:07.045Z,66.77
2023-05-25T09:52:07.047Z,65.49
2023-05-25T09:53:07.039Z,66.93
2023-05-25T09:54:07.063Z,67.91
2023-05-25T09:55:07.052Z,66.50
2023-05-25T09:56:07.072Z,65.49
2023-05-25T09:57:07.011Z,64.41
2023-05-25T09:58:07.006Z,63.37
2023-05-25T09:59:07.019Z,66.39
2023-05-25T10:00:06.986Z,66.93
2023-05-25T10:01:06.979Z,67.63
2023-05-25T10:02:07.013Z,65.01
2023-05-25T10:03:06.974Z,66.13
2023-05-25T10:04:06.992Z,67.47
2023-05-25T10:05:07.080Z,68.24
2023-05-25T10:06:06.955Z,66.73
2023-05-25T10:07:06.948Z,67.30
2023-05-25T10:08:06.951Z,64.04
2023-05-25T10:09:06.946Z,66.83
2023-05-25T10:10:06.915Z,66.56
2023-05-25T10:11:06.905Z,67.63
2023-05-25T10:12:06.897Z,65.22
2023-05-25T10:13:06.920Z,68.17
2023-05-25T10:14:06.874Z,65.12
2023-05-25T10:15:06.876Z,65.75
2023-05-25T10:16:06.871Z,68.27
2023-05-25T10:17:06.870Z,67.33
2023-05-25T10:18:06.949Z,67.16
2023-05-25T10:19:07.845Z,67.54
2023-05-25T10:20:06.843Z,67.30
2023-05-25T10:21:06.884Z,63.95
2023-05-25T10:22:06.819Z,65.22
2023-05-25T10:23:06.831Z,63.31
2023-05-25T10:24:06.805Z,63.34
2023-05-25T10:25:06.804Z,64.98
2023-05-25T10:26:06.814Z,67.91
2023-05-25T10:27:18.549Z,65.36
2023-05-25T10:28:08.817Z,67.27
2023-05-25T10:29:06.772Z,65.62
2023-05-25T10:30:06.763Z,63.28
2023-05-25T10:31:06.844Z,64.72
2023-05-25T10:32:06.804Z,62.98
2023-05-25T10:33:06.796Z,65.56
2023-05-25T10:34:06.745Z,66.70
2023-05-25T10:35:06.745Z,66.39
2023-05-25T10:36:10.770Z,64.38
2023-05-25T10:37:07.762Z,67.40
2023-05-25T10:38:06.710Z,66.06
2023-05-25T10:39:07.135Z,65.19
2023-05-25T10:40:06.701Z,66.60
2023-05-25T10:41:06.678Z,63.67
2023-05-25T10:42:06.751Z,66.50
2023-05-25T10:43:06.668Z,64.22
2023-05-25T10:44:06.660Z,66.80
2023-05-25T10:45:06.653Z,67.24
2023-05-25T10:46:06.647Z,67.97
2023-05-25T10:47:06.743Z,66.22
2023-05-25T10:48:06.685Z,65.99
2023-05-25T10:49:06.620Z,69.59
2023-05-25T10:50:06.615Z,67.74
2023-05-25T10:51:07.288Z,67.23
2023-05-25T10:52:06.612Z,67.63
2023-05-25T10:53:06.619Z,65.32
2023-05-25T10:54:06.581Z,67.43
2023-05-25T10:55:06.584Z,67.74
2023-05-25T10:56:06.620Z,65.29
2023-05-25T10:57:06.544Z,65.99
2023-05-25T10:58:06.533Z,63.47
2023-05-25T10:59:06.534Z,63.65
2023-05-25T11:00:06.778Z,66.77
2023-05-25T11:01:06.604Z,65.26
2023-05-25T11:02:06.950Z,63.18
2023-05-25T11:03:07.566Z,64.16
2023-05-25T11:04:06.524Z,63.25
2023-05-25T11:05:06.519Z,63.73
2023-05-25T11:06:06.522Z,64.22
2023-05-25T11:07:06.487Z,66.73
2023-05-25T11:08:08.546Z,66.59
2023-05-25T11:09:06.484Z,69.35
2023-05-25T11:10:06.492Z,69.65
2023-05-25T11:11:06.446Z,70.46
2023-05-25T11:12:06.443Z,68.48
2023-05-25T11:13:07.436Z,68.91
2023-05-25T11:14:06.429Z,65.26
2023-05-25T11:15:06.446Z,69.38
2023-05-25T11:16:06.405Z,66.83
2023-05-25T11:17:06.504Z,67.68
2023-05-25T11:18:06.411Z,64.78
2023-05-25T11:19:06.422Z,65.99
2023-05-25T11:20:06.451Z,66.97
2023-05-25T11:21:06.378Z,64.32
2023-05-25T11:22:07.365Z,62.85
2023-05-25T11:23:07.356Z,63.05
2023-05-25T11:24:06.370Z,62.39
2023-05-25T11:25:06.340Z,65.20
2023-05-25T11:26:06.338Z,64.60
2023-05-25T11:27:06.323Z,63.76
2023-05-25T11:28:06.317Z,64.69
2023-05-25T11:29:06.338Z,62.65
2023-05-25T11:30:06.300Z,65.36
2023-05-25T11:31:06.296Z,64.59
2023-05-25T11:32:06.296Z,62.61
2023-05-25T11:33:06.313Z,64.59
2023-05-25T11:34:06.298Z,63.25
2023-05-25T11:35:06.267Z,66.40
2023-05-25T11:36:06.259Z,64.02
2023-05-25T11:37:06.247Z,66.47
2023-05-25T11:38:06.284Z,67.10
2023-05-25T11:39:11.681Z,64.25
2023-05-25T11:40:08.216Z,64.65
2023-05-25T11:41:06.214Z,67.97
2023-05-25T11:42:06.203Z,66.36
2023-05-25T11:43:06.259Z,65.39
2023-05-25T11:44:06.212Z,65.29
2023-05-25T11:45:06.195Z,65.39
2023-05-25T11:46:06.194Z,67.17
2023-05-25T11:47:06.242Z,65.49
2023-05-25T11:48:06.256Z,64.78
2023-05-25T11:49:06.145Z,67.00
2023-05-25T11:50:06.145Z,69.25
2023-05-25T11:51:06.136Z,62.87
2023-05-25T11:52:06.182Z,66.83
2023-05-25T11:53:06.147Z,63.71
2023-05-25T11:54:06.109Z,65.86
2023-05-25T11:55:06.116Z,65.36
2023-05-25T11:56:08.400Z,63.34
2023-05-25T11:57:07.152Z,63.98
2023-05-25T11:58:06.112Z,65.69
2023-05-25T11:59:06.074Z,65.96
2023-05-25T12:00:06.061Z,64.58
2023-05-25T12:01:06.061Z,66.30
2023-05-25T12:02:06.078Z,66.67
2023-05-25T12:03:06.165Z,64.05
2023-05-25T12:04:06.072Z,62.84
2023-05-25T12:05:06.576Z,64.29
2023-05-25T12:06:06.033Z,62.48
2023-05-25T12:07:06.053Z,63.18
2023-05-25T12:08:06.007Z,65.53
2023-05-25T12:09:05.992Z,64.69
2023-05-25T12:10:05.988Z,65.53
2023-05-25T12:11:06.005Z,69.45
2023-05-25T12:12:05.976Z,67.21
2023-05-25T12:13:05.962Z,66.10
2023-05-25T12:14:05.954Z,65.53
2023-05-25T12:15:05.953Z,65.59
2023-05-25T12:16:05.971Z,64.82
2023-05-25T12:17:05.980Z,64.25
2023-05-25T12:18:05.982Z,64.35
2023-05-25T12:19:05.925Z,67.27
2023-05-25T12:20:05.987Z,67.17
2023-05-25T12:21:05.928Z,65.16
2023-05-25T12:22:05.907Z,62.94
2023-05-25T12:23:05.892Z,67.77
2023-05-25T12:24:06.282Z,67.81
2023-05-25T12:25:05.911Z,65.06
2023-05-25T12:26:05.874Z,66.87
2023-05-25T12:27:05.862Z,63.62
2023-05-25T12:28:05.847Z,62.88
2023-05-25T12:29:05.865Z,62.48
2023-05-25T12:30:05.859Z,66.20
2023-05-25T12:31:05.876Z,66.50
2023-05-25T12:32:05.861Z,66.40
2023-05-25T12:33:05.858Z,64.29
2023-05-25T12:34:05.824Z,66.20
2023-05-25T12:35:05.818Z,64.16
2023-05-25T12:36:05.791Z,64.92
2023-05-25T12:37:05.774Z,63.21
2023-05-25T12:38:05.768Z,63.51
2023-05-25T12:39:05.815Z,64.02
2023-05-25T12:40:05.772Z,66.53
2023-05-25T12:41:05.750Z,64.79
2023-05-25T12:42:05.732Z,64.06
2023-05-25T12:43:05.754Z,63.18
2023-05-25T12:44:05.756Z,65.70
2023-05-25T12:45:05.712Z,66.97
2023-05-25T12:46:05.770Z,65.97
2023-05-25T12:47:05.732Z,63.28
2023-05-25T12:48:05.782Z,62.98
2023-05-25T12:49:05.702Z,67.61
2023-05-25T12:50:05.696Z,63.89
2023-05-25T12:51:05.751Z,65.42
2023-05-25T12:52:05.647Z,64.19